Etusivu
METAR-TAF:

METAR-TAF

Lentoasemat :

Harry P. Williams Memorial Airport

Patterson, Louisiana, Yhdysvallat

Leveyspiiri: 29-43N, Pituuspiiri: 091-20W, korkeus merenpinnasta: 3 m

Tämänhetkinen sää

Tämä raportti tehtiin 13 minuuttia sitten, kello 13.56 UTC
Tuuli 8 kn etelästä/lounaasta
Lämpötila 18°C
Kosteus 100%
Ilmanpaine 1012 hPa
Näkyvyys: 9.7 km
Muutamia pilviä 2300 ft:n korkeudessa
Hajonneita pilviä 5000 ft:n korkeudessa
Pilvistä 7000 ft:n korkeudessa
ukkosta näköpiirissä, heikkoa sadetta, utua

METAR: KPTN 251356Z AUTO 20008KT 6SM VCTS -RA BR FEW023 BKN050 OVC070 18/18 A2988 RMK AO2 LTG DSNT ALQDS TSE11B13E17B19E33B35E52B54 SLP120 P0080 T01830183

Aika: 09:09 (14:09 UTC)


TAF: puuttuu

Säähavainnot ja -ennusteet yli 4000 lentoasemalta (METAR- ja TAF-raportit).

Käytössä olevat sääasemat on merkitty karttaan keltaisilla ja punaisilla pisteillä.

Aseta hiiri pisteen päälle nähdäksesi sääaseman nimen.

Klikkaa sitten nähdäksesi säähavainnot ja -ennusteet.

Kartan vaihtaminen: klikkaa mustalla rastilla varustettuja vihreitä pisteitä, niin voit zoomata sisään; viivalla varustettua vihreää pistettä, niin voit zoomata ulos tai vihreitä nuolia, niin pääset viereisille kartoille.


METAR-TAF: